createdAt,value
2022-09-27T00:00:23.919Z,26.70
2022-09-27T00:01:23.974Z,26.72
2022-09-27T00:02:23.973Z,26.76
2022-09-27T00:03:23.919Z,26.70
2022-09-27T00:04:23.921Z,26.72
2022-09-27T00:05:23.918Z,26.67
2022-09-27T00:06:23.938Z,26.72
2022-09-27T00:07:23.919Z,26.70
2022-09-27T00:08:23.919Z,26.70
2022-09-27T00:09:23.919Z,26.73
2022-09-27T00:10:23.918Z,26.70
2022-09-27T00:11:23.919Z,26.80
2022-09-27T00:12:23.919Z,26.75
2022-09-27T00:13:23.925Z,26.73
2022-09-27T00:14:23.918Z,26.70
2022-09-27T00:15:23.920Z,26.67
2022-09-27T00:16:23.998Z,26.73
2022-09-27T00:17:23.919Z,26.66
2022-09-27T00:18:23.916Z,26.73
2022-09-27T00:19:23.925Z,26.70
2022-09-27T00:20:23.918Z,26.76
2022-09-27T00:21:23.921Z,26.75
2022-09-27T00:22:23.940Z,26.75
2022-09-27T00:23:23.917Z,26.70
2022-09-27T00:24:23.916Z,26.75
2022-09-27T00:25:23.919Z,26.73
2022-09-27T00:26:23.916Z,26.70
2022-09-27T00:27:23.919Z,26.80
2022-09-27T00:28:23.919Z,26.75
2022-09-27T00:29:23.919Z,26.69
2022-09-27T00:30:23.922Z,26.67
2022-09-27T00:31:24.051Z,26.77
2022-09-27T00:32:23.920Z,26.72
2022-09-27T00:33:23.921Z,26.72
2022-09-27T00:34:23.919Z,26.69
2022-09-27T00:35:23.920Z,26.72
2022-09-27T00:36:23.916Z,26.63
2022-09-27T00:37:23.920Z,26.73
2022-09-27T00:38:23.941Z,26.73
2022-09-27T00:39:23.917Z,26.69
2022-09-27T00:40:24.004Z,26.72
2022-09-27T00:41:23.920Z,26.70
2022-09-27T00:42:23.917Z,26.69
2022-09-27T00:43:23.919Z,26.70
2022-09-27T00:44:23.924Z,26.72
2022-09-27T00:45:23.920Z,26.75
2022-09-27T00:46:23.973Z,26.70
2022-09-27T00:47:23.919Z,26.81
2022-09-27T00:48:23.918Z,26.72
2022-09-27T00:49:23.918Z,26.81
2022-09-27T00:50:23.915Z,26.81
2022-09-27T00:51:23.918Z,26.72
2022-09-27T00:52:23.916Z,26.73
2022-09-27T00:53:23.920Z,26.81
2022-09-27T00:54:23.938Z,26.72
2022-09-27T00:55:23.916Z,26.77
2022-09-27T00:56:23.923Z,26.80
2022-09-27T00:57:23.919Z,26.73
2022-09-27T00:58:23.917Z,26.70
2022-09-27T00:59:23.917Z,26.75
2022-09-27T01:00:23.916Z,26.69
2022-09-27T01:01:24.013Z,26.72
2022-09-27T01:02:24.000Z,26.73
2022-09-27T01:03:23.919Z,26.75
2022-09-27T01:04:23.919Z,26.72
2022-09-27T01:05:23.925Z,26.72
2022-09-27T01:06:23.919Z,26.75
2022-09-27T01:07:23.923Z,26.81
2022-09-27T01:08:23.919Z,26.70
2022-09-27T01:09:23.918Z,26.75
2022-09-27T01:10:23.939Z,26.75
2022-09-27T01:11:23.918Z,26.72
2022-09-27T01:12:23.919Z,26.65
2022-09-27T01:13:23.921Z,26.70
2022-09-27T01:14:23.917Z,26.75
2022-09-27T01:15:23.962Z,26.75
2022-09-27T01:16:23.917Z,26.72
2022-09-27T01:17:23.919Z,26.80
2022-09-27T01:18:23.917Z,26.73
2022-09-27T01:19:23.917Z,26.77
2022-09-27T01:20:23.918Z,26.67
2022-09-27T01:21:23.920Z,26.75
2022-09-27T01:22:23.917Z,26.69
2022-09-27T01:23:23.917Z,26.75
2022-09-27T01:24:23.918Z,26.72
2022-09-27T01:25:23.920Z,26.75
2022-09-27T01:26:23.939Z,26.76
2022-09-27T01:27:23.917Z,26.77
2022-09-27T01:28:23.917Z,26.62
2022-09-27T01:29:23.918Z,26.72
2022-09-27T01:30:23.919Z,26.70
2022-09-27T01:31:24.031Z,26.75
2022-09-27T01:32:23.917Z,26.75
2022-09-27T01:33:23.920Z,26.75
2022-09-27T01:34:23.915Z,26.75
2022-09-27T01:35:23.918Z,26.69
2022-09-27T01:36:23.916Z,26.76
2022-09-27T01:37:23.917Z,26.73
2022-09-27T01:38:23.922Z,26.80
2022-09-27T01:39:23.922Z,26.76
2022-09-27T01:40:23.986Z,26.72
2022-09-27T01:41:23.919Z,26.70
2022-09-27T01:42:23.958Z,26.72
2022-09-27T01:43:23.916Z,26.75
2022-09-27T01:44:23.917Z,26.77
2022-09-27T01:45:23.918Z,26.75
2022-09-27T01:46:23.998Z,26.72
2022-09-27T01:47:23.917Z,26.77
2022-09-27T01:48:23.918Z,26.76
2022-09-27T01:49:23.917Z,26.72
2022-09-27T01:50:23.915Z,26.66
2022-09-27T01:51:23.917Z,26.76
2022-09-27T01:52:23.916Z,26.72
2022-09-27T01:53:23.918Z,26.70
2022-09-27T01:54:23.916Z,26.72
2022-09-27T01:55:23.916Z,26.77
2022-09-27T01:56:23.915Z,26.75
2022-09-27T01:57:23.916Z,26.75
2022-09-27T01:58:23.937Z,26.67
2022-09-27T01:59:23.918Z,26.76
2022-09-27T02:00:23.914Z,26.70
2022-09-27T02:01:23.974Z,26.75
2022-09-27T02:02:24.018Z,26.76
2022-09-27T02:03:23.918Z,26.75
2022-09-27T02:04:23.916Z,26.67
2022-09-27T02:05:23.917Z,26.75
2022-09-27T02:06:23.914Z,26.67
2022-09-27T02:07:23.917Z,26.69
2022-09-27T02:08:23.917Z,26.76
2022-09-27T02:09:23.921Z,26.72
2022-09-27T02:10:23.920Z,26.67
2022-09-27T02:11:23.920Z,26.76
2022-09-27T02:12:23.920Z,26.70
2022-09-27T02:13:23.924Z,26.73
2022-09-27T02:14:23.937Z,26.70
2022-09-27T02:15:23.917Z,26.67
2022-09-27T02:16:24.056Z,26.67
2022-09-27T02:17:23.920Z,26.73
2022-09-27T02:18:23.933Z,26.70
2022-09-27T02:19:23.916Z,26.72
2022-09-27T02:20:23.917Z,26.77
2022-09-27T02:21:23.916Z,26.70
2022-09-27T02:22:23.915Z,26.77
2022-09-27T02:23:23.916Z,26.72
2022-09-27T02:24:23.916Z,26.73
2022-09-27T02:25:23.916Z,26.76
2022-09-27T02:26:23.914Z,26.69
2022-09-27T02:27:23.915Z,26.80
2022-09-27T02:28:23.915Z,26.77
2022-09-27T02:29:23.919Z,26.75
2022-09-27T02:30:23.936Z,26.67
2022-09-27T02:31:24.019Z,26.77
2022-09-27T02:32:23.913Z,26.63
2022-09-27T02:33:23.915Z,26.66
2022-09-27T02:34:23.913Z,26.76
2022-09-27T02:35:23.914Z,26.70
2022-09-27T02:36:23.919Z,26.76
2022-09-27T02:37:23.914Z,26.77
2022-09-27T02:38:23.916Z,26.75
2022-09-27T02:39:23.915Z,26.73
2022-09-27T02:40:24.038Z,26.75
2022-09-27T02:41:23.916Z,26.67
2022-09-27T02:42:23.914Z,26.80
2022-09-27T02:43:23.919Z,26.67
2022-09-27T02:44:23.914Z,26.75
2022-09-27T02:45:23.915Z,26.76
2022-09-27T02:46:24.102Z,26.76
2022-09-27T02:47:23.915Z,26.77
2022-09-27T02:48:23.913Z,26.73
2022-09-27T02:49:23.915Z,26.75
2022-09-27T02:50:23.914Z,26.76
2022-09-27T02:51:23.925Z,26.69
2022-09-27T02:52:23.914Z,26.76
2022-09-27T02:53:23.915Z,26.73
2022-09-27T02:54:23.912Z,26.70
2022-09-27T02:55:23.916Z,26.70
2022-09-27T02:56:23.913Z,26.69
2022-09-27T02:57:23.917Z,26.76
2022-09-27T02:58:23.915Z,26.69
2022-09-27T02:59:23.913Z,26.76
2022-09-27T03:00:23.915Z,26.75
2022-09-27T03:01:23.936Z,26.76
2022-09-27T03:02:24.016Z,26.72
2022-09-27T03:03:23.914Z,26.77
2022-09-27T03:04:23.914Z,26.69
2022-09-27T03:05:23.914Z,26.73
2022-09-27T03:06:23.914Z,26.77
2022-09-27T03:07:23.914Z,26.72
2022-09-27T03:08:23.916Z,26.69
2022-09-27T03:09:23.914Z,26.70
2022-09-27T03:10:23.913Z,26.75
2022-09-27T03:11:23.913Z,26.73
2022-09-27T03:12:23.914Z,26.69
2022-09-27T03:13:23.914Z,26.63
2022-09-27T03:14:23.913Z,26.75
2022-09-27T03:15:23.911Z,26.76
2022-09-27T03:16:23.960Z,26.75
2022-09-27T03:17:23.912Z,26.76
2022-09-27T03:18:23.944Z,26.73
2022-09-27T03:19:23.913Z,26.75
2022-09-27T03:20:23.913Z,26.67
2022-09-27T03:21:23.917Z,26.67
2022-09-27T03:22:23.912Z,26.67
2022-09-27T03:23:23.913Z,26.75
2022-09-27T03:24:23.915Z,26.73
2022-09-27T03:25:23.915Z,26.73
2022-09-27T03:26:23.912Z,26.76
2022-09-27T03:27:23.913Z,26.66
2022-09-27T03:28:23.914Z,26.77
2022-09-27T03:29:23.913Z,26.73
2022-09-27T03:30:23.912Z,26.76
2022-09-27T03:31:23.984Z,26.67
2022-09-27T03:32:23.914Z,26.76
2022-09-27T03:33:23.912Z,26.73
2022-09-27T03:34:23.936Z,26.76
2022-09-27T03:35:23.913Z,26.75
2022-09-27T03:36:23.914Z,26.67
2022-09-27T03:37:23.914Z,26.76
2022-09-27T03:38:23.915Z,26.75
2022-09-27T03:39:23.914Z,26.73
2022-09-27T03:40:23.987Z,26.73
2022-09-27T03:41:23.912Z,26.65
2022-09-27T03:42:23.914Z,26.76
2022-09-27T03:43:23.911Z,26.66
2022-09-27T03:44:23.914Z,26.81
2022-09-27T03:45:23.914Z,26.73
2022-09-27T03:46:23.979Z,26.76
2022-09-27T03:47:23.913Z,26.72
2022-09-27T03:48:27.899Z,26.73
2022-09-27T03:49:23.913Z,26.73
2022-09-27T03:50:23.936Z,26.75
2022-09-27T03:51:23.912Z,26.75
2022-09-27T03:52:23.914Z,26.75
2022-09-27T03:53:23.913Z,26.72
2022-09-27T03:54:23.920Z,26.75
2022-09-27T03:55:23.913Z,26.75
2022-09-27T03:56:23.919Z,26.69
2022-09-27T03:57:23.911Z,26.72
2022-09-27T03:58:23.913Z,26.80
2022-09-27T03:59:23.911Z,26.73
2022-09-27T04:00:23.915Z,26.75
2022-09-27T04:01:23.974Z,26.66
2022-09-27T04:02:23.932Z,26.69
2022-09-27T04:03:23.912Z,26.77
2022-09-27T04:04:23.913Z,26.75
2022-09-27T04:05:23.913Z,26.70
2022-09-27T04:06:23.934Z,26.69
2022-09-27T04:07:23.911Z,26.70
2022-09-27T04:08:23.913Z,26.76
2022-09-27T04:09:23.917Z,26.76
2022-09-27T04:10:23.916Z,26.73
2022-09-27T04:11:23.912Z,26.76
2022-09-27T04:12:23.914Z,26.67
2022-09-27T04:13:23.912Z,26.75
2022-09-27T04:14:23.913Z,26.76
2022-09-27T04:15:23.910Z,26.73
2022-09-27T04:16:23.920Z,26.73
2022-09-27T04:17:23.912Z,26.75
2022-09-27T04:18:23.912Z,26.73
2022-09-27T04:19:23.910Z,26.75
2022-09-27T04:20:23.913Z,26.75
2022-09-27T04:21:23.910Z,26.70
2022-09-27T04:22:23.933Z,26.69
2022-09-27T04:23:28.973Z,26.75
2022-09-27T04:24:23.912Z,26.75
2022-09-27T04:25:23.910Z,26.80
2022-09-27T04:26:23.912Z,26.75
2022-09-27T04:27:23.910Z,26.66
2022-09-27T04:28:23.911Z,26.77
2022-09-27T04:29:23.912Z,26.73
2022-09-27T04:30:23.912Z,26.76
2022-09-27T04:31:24.082Z,26.75
2022-09-27T04:32:23.911Z,26.77
2022-09-27T04:33:23.910Z,26.75
2022-09-27T04:34:23.911Z,26.67
2022-09-27T04:35:23.910Z,26.70
2022-09-27T04:36:23.911Z,26.75
2022-09-27T04:37:23.913Z,26.69
2022-09-27T04:38:23.947Z,26.67
2022-09-27T04:39:23.911Z,26.76
2022-09-27T04:40:23.955Z,26.80
2022-09-27T04:41:23.915Z,26.66
2022-09-27T04:42:23.911Z,26.67
2022-09-27T04:43:23.910Z,26.76
2022-09-27T04:44:23.913Z,26.75
2022-09-27T04:45:23.910Z,26.77
2022-09-27T04:46:23.967Z,26.67
2022-09-27T04:47:23.909Z,26.75
2022-09-27T04:48:23.911Z,26.70
2022-09-27T04:49:23.910Z,26.76
2022-09-27T04:50:23.911Z,26.77
2022-09-27T04:51:23.913Z,26.75
2022-09-27T04:52:23.911Z,26.76
2022-09-27T04:53:23.910Z,26.75
2022-09-27T04:54:23.931Z,26.67
2022-09-27T04:55:23.911Z,26.76
2022-09-27T04:56:23.920Z,26.77
2022-09-27T04:57:23.910Z,26.76
2022-09-27T04:58:23.912Z,26.75
2022-09-27T04:59:23.909Z,26.73
2022-09-27T05:00:23.910Z,26.65
2022-09-27T05:01:23.992Z,26.73
2022-09-27T05:02:23.959Z,26.69
2022-09-27T05:03:23.909Z,26.76
2022-09-27T05:04:23.910Z,26.75
2022-09-27T05:05:23.910Z,26.70
2022-09-27T05:06:23.912Z,26.81
2022-09-27T05:07:23.909Z,26.75
2022-09-27T05:08:23.911Z,26.76
2022-09-27T05:09:23.913Z,26.73
2022-09-27T05:10:23.933Z,26.72
2022-09-27T05:11:23.910Z,26.70
2022-09-27T05:12:23.915Z,26.72
2022-09-27T05:13:23.909Z,26.76
2022-09-27T05:14:23.913Z,26.75
2022-09-27T05:15:23.912Z,26.73
2022-09-27T05:16:23.945Z,26.76
2022-09-27T05:17:23.910Z,26.69
2022-09-27T05:18:23.927Z,26.81
2022-09-27T05:19:23.909Z,26.84
2022-09-27T05:20:23.910Z,26.82
2022-09-27T05:21:23.909Z,26.88
2022-09-27T05:22:23.916Z,26.82
2022-09-27T05:23:23.909Z,26.92
2022-09-27T05:24:23.910Z,26.81
2022-09-27T05:25:23.909Z,26.89
2022-09-27T05:26:24.036Z,26.87
2022-09-27T05:27:23.910Z,26.91
2022-09-27T05:28:23.911Z,26.91
2022-09-27T05:29:23.910Z,26.92
2022-09-27T05:30:23.910Z,26.91
2022-09-27T05:31:24.021Z,26.89
2022-09-27T05:32:23.914Z,26.94
2022-09-27T05:33:23.911Z,26.94
2022-09-27T05:34:23.910Z,26.97
2022-09-27T05:35:23.909Z,26.99
2022-09-27T05:36:23.912Z,26.95
2022-09-27T05:37:23.910Z,27.07
2022-09-27T05:38:23.911Z,27.09
2022-09-27T05:39:23.910Z,27.09
2022-09-27T05:40:40.362Z,27.18
2022-09-27T05:41:24.110Z,27.21
2022-09-27T05:42:23.946Z,27.14
2022-09-27T05:43:23.914Z,27.24
2022-09-27T05:44:23.912Z,27.24
2022-09-27T05:45:23.912Z,27.27
2022-09-27T05:46:23.921Z,27.21
2022-09-27T05:47:23.912Z,27.25
2022-09-27T05:48:23.913Z,27.32
2022-09-27T05:49:23.913Z,27.41
2022-09-27T05:50:23.912Z,27.29
2022-09-27T05:51:23.915Z,27.43
2022-09-27T05:52:23.928Z,27.40
2022-09-27T05:53:23.913Z,27.39
2022-09-27T05:54:23.914Z,27.39
2022-09-27T05:55:23.916Z,27.43
2022-09-27T05:56:23.917Z,27.44
2022-09-27T05:57:23.915Z,27.46
2022-09-27T05:58:23.938Z,27.50
2022-09-27T05:59:23.915Z,27.51
2022-09-27T06:00:23.917Z,27.50
2022-09-27T06:01:23.954Z,27.65
2022-09-27T06:02:23.957Z,27.63
2022-09-27T06:03:23.916Z,27.63
2022-09-27T06:04:23.921Z,27.60
2022-09-27T06:05:23.921Z,27.62
2022-09-27T06:06:23.920Z,27.59
2022-09-27T06:07:23.918Z,27.66
2022-09-27T06:08:23.921Z,27.65
2022-09-27T06:09:23.921Z,27.69
2022-09-27T06:10:23.921Z,27.65
2022-09-27T06:11:23.921Z,27.65
2022-09-27T06:12:23.923Z,27.63
2022-09-27T06:13:23.923Z,27.79
2022-09-27T06:14:23.947Z,27.74
2022-09-27T06:15:23.925Z,27.81
2022-09-27T06:16:23.958Z,27.78
2022-09-27T06:17:23.926Z,27.75
2022-09-27T06:18:23.925Z,27.84
2022-09-27T06:19:23.928Z,27.84
2022-09-27T06:20:23.931Z,27.72
2022-09-27T06:21:23.927Z,27.79
2022-09-27T06:22:23.929Z,27.82
2022-09-27T06:23:23.928Z,27.93
2022-09-27T06:24:23.929Z,27.85
2022-09-27T06:25:23.930Z,27.78
2022-09-27T06:26:23.931Z,27.87
2022-09-27T06:27:23.930Z,27.93
2022-09-27T06:28:23.933Z,27.79
2022-09-27T06:29:23.933Z,27.97
2022-09-27T06:30:23.960Z,27.85
2022-09-27T06:31:23.971Z,27.90
2022-09-27T06:32:23.934Z,27.93
2022-09-27T06:33:23.934Z,27.72
2022-09-27T06:34:23.935Z,27.90
2022-09-27T06:35:23.937Z,27.82
2022-09-27T06:36:23.938Z,27.85
2022-09-27T06:37:23.937Z,27.84
2022-09-27T06:38:23.937Z,27.78
2022-09-27T06:39:23.937Z,27.79
2022-09-27T06:40:24.001Z,27.82
2022-09-27T06:41:23.940Z,27.85
2022-09-27T06:42:23.941Z,27.69
2022-09-27T06:43:23.941Z,27.75
2022-09-27T06:44:23.942Z,27.72
2022-09-27T06:45:23.942Z,27.82
2022-09-27T06:46:24.007Z,27.79
2022-09-27T06:47:23.943Z,27.75
2022-09-27T06:48:23.944Z,27.78
2022-09-27T06:49:23.944Z,27.74
2022-09-27T06:50:23.948Z,27.79
2022-09-27T06:51:23.946Z,27.70
2022-09-27T06:52:23.951Z,27.82
2022-09-27T06:53:23.947Z,27.79
2022-09-27T06:54:23.948Z,27.79
2022-09-27T06:55:23.947Z,27.77
2022-09-27T06:56:23.948Z,27.72
2022-09-27T06:57:23.949Z,27.84
2022-09-27T06:58:23.950Z,27.84
2022-09-27T06:59:23.950Z,27.84
2022-09-27T07:00:23.951Z,27.82
2022-09-27T07:01:24.018Z,27.82
2022-09-27T07:02:24.020Z,27.70
2022-09-27T07:03:23.954Z,27.78
2022-09-27T07:04:23.953Z,27.78
2022-09-27T07:05:23.953Z,27.84
2022-09-27T07:06:23.955Z,27.90
2022-09-27T07:07:23.955Z,27.90
2022-09-27T07:08:23.957Z,27.82
2022-09-27T07:09:23.955Z,27.87
2022-09-27T07:10:23.957Z,27.88
2022-09-27T07:11:23.956Z,27.90
2022-09-27T07:12:23.965Z,27.88
2022-09-27T07:13:23.960Z,27.82
2022-09-27T07:14:23.959Z,27.78
2022-09-27T07:15:23.964Z,27.81
2022-09-27T07:16:24.087Z,27.81
2022-09-27T07:17:23.964Z,27.82
2022-09-27T07:18:23.984Z,27.84
2022-09-27T07:19:23.962Z,27.82
2022-09-27T07:20:23.964Z,27.85
2022-09-27T07:21:23.964Z,27.81
2022-09-27T07:22:23.962Z,27.84
2022-09-27T07:23:23.966Z,27.82
2022-09-27T07:24:23.965Z,27.87
2022-09-27T07:25:23.968Z,27.81
2022-09-27T07:26:23.965Z,27.82
2022-09-27T07:27:23.967Z,27.82
2022-09-27T07:28:23.970Z,27.82
2022-09-27T07:29:23.970Z,27.75
2022-09-27T07:30:24.107Z,27.72
2022-09-27T07:31:23.969Z,27.94
2022-09-27T07:32:23.971Z,27.92
2022-09-27T07:33:23.971Z,27.96
2022-09-27T07:34:23.993Z,27.70
2022-09-27T07:35:23.978Z,27.88
2022-09-27T07:36:23.974Z,27.74
2022-09-27T07:37:23.978Z,27.93
2022-09-27T07:38:23.973Z,27.87
2022-09-27T07:39:23.976Z,27.75
2022-09-27T07:40:24.039Z,27.96
2022-09-27T07:41:23.978Z,27.81
2022-09-27T07:42:23.975Z,27.72
2022-09-27T07:43:23.979Z,27.78
2022-09-27T07:44:23.978Z,27.88
2022-09-27T07:45:23.981Z,27.85
2022-09-27T07:46:24.024Z,27.78
2022-09-27T07:47:23.981Z,27.84
2022-09-27T07:48:23.983Z,27.87
2022-09-27T07:49:23.983Z,27.94
2022-09-27T07:50:24.100Z,27.84
2022-09-27T07:51:23.983Z,27.87
2022-09-27T07:52:23.983Z,27.87
2022-09-27T07:53:23.984Z,27.94
2022-09-27T07:54:23.984Z,27.94
2022-09-27T07:55:23.992Z,27.88
2022-09-27T07:56:23.985Z,27.79
2022-09-27T07:57:23.988Z,27.78
2022-09-27T07:58:23.986Z,27.85
2022-09-27T07:59:23.990Z,27.84
2022-09-27T08:00:24.069Z,27.78
2022-09-27T08:01:24.029Z,27.90
2022-09-27T08:02:24.073Z,27.82
2022-09-27T08:03:23.993Z,27.84
2022-09-27T08:04:23.991Z,27.84
2022-09-27T08:05:23.993Z,27.88
2022-09-27T08:06:24.019Z,27.87
2022-09-27T08:07:23.993Z,27.97
2022-09-27T08:08:23.994Z,27.97
2022-09-27T08:09:24.001Z,27.85
2022-09-27T08:10:24.052Z,27.84
2022-09-27T08:11:23.999Z,27.90
2022-09-27T08:12:23.996Z,27.94
2022-09-27T08:13:23.997Z,27.90
2022-09-27T08:14:23.997Z,27.88
2022-09-27T08:15:23.999Z,27.82
2022-09-27T08:16:24.047Z,27.88
2022-09-27T08:17:24.001Z,27.82
2022-09-27T08:18:24.000Z,27.87
2022-09-27T08:19:24.002Z,27.93
2022-09-27T08:20:24.219Z,27.88
2022-09-27T08:21:24.004Z,27.87
2022-09-27T08:22:24.030Z,27.93
2022-09-27T08:23:24.004Z,27.88
2022-09-27T08:24:24.004Z,27.87
2022-09-27T08:25:24.006Z,27.85
2022-09-27T08:26:24.008Z,27.87
2022-09-27T08:27:24.007Z,27.84
2022-09-27T08:28:24.008Z,27.93
2022-09-27T08:29:24.011Z,27.85
2022-09-27T08:30:24.010Z,27.81
2022-09-27T08:31:24.101Z,27.79
2022-09-27T08:32:24.011Z,27.87
2022-09-27T08:33:24.746Z,27.85
2022-09-27T08:34:24.010Z,27.85
2022-09-27T08:35:24.012Z,27.82
2022-09-27T08:36:24.012Z,27.81
2022-09-27T08:37:24.014Z,27.84
2022-09-27T08:38:24.039Z,27.84
2022-09-27T08:39:24.019Z,27.87
2022-09-27T08:40:24.220Z,27.84
2022-09-27T08:41:24.018Z,27.81
2022-09-27T08:42:24.016Z,27.93
2022-09-27T08:43:24.018Z,27.88
2022-09-27T08:44:24.021Z,27.85
2022-09-27T08:45:24.101Z,27.75
2022-09-27T08:46:24.024Z,27.85
2022-09-27T08:47:24.020Z,27.81
2022-09-27T08:48:24.020Z,27.84
2022-09-27T08:49:24.025Z,27.81
2022-09-27T08:50:24.022Z,27.92
2022-09-27T08:51:24.023Z,27.87
2022-09-27T08:52:24.026Z,27.84
2022-09-27T08:53:24.026Z,27.92
2022-09-27T08:54:24.047Z,27.72
2022-09-27T08:55:24.026Z,27.85
2022-09-27T08:56:24.025Z,27.81
2022-09-27T08:57:24.027Z,27.81
2022-09-27T08:58:24.025Z,27.81
2022-09-27T08:59:24.028Z,27.82
2022-09-27T09:00:24.031Z,27.82
2022-09-27T09:01:28.708Z,27.74
2022-09-27T09:02:24.080Z,27.81
2022-09-27T09:03:24.030Z,27.78
2022-09-27T09:04:24.030Z,27.84
2022-09-27T09:05:24.032Z,27.70
2022-09-27T09:06:24.033Z,27.75
2022-09-27T09:07:24.038Z,27.75
2022-09-27T09:08:24.032Z,27.74
2022-09-27T09:09:24.042Z,27.79
2022-09-27T09:10:24.068Z,27.82
2022-09-27T09:11:24.035Z,27.77
2022-09-27T09:12:24.510Z,27.77
2022-09-27T09:13:24.036Z,27.79
2022-09-27T09:14:24.035Z,27.74
2022-09-27T09:15:24.037Z,27.72
2022-09-27T09:16:24.077Z,27.74
2022-09-27T09:17:24.039Z,27.81
2022-09-27T09:18:24.037Z,27.78
2022-09-27T09:19:24.041Z,27.74
2022-09-27T09:20:24.040Z,27.85
2022-09-27T09:21:24.043Z,27.84
2022-09-27T09:22:24.040Z,27.79
2022-09-27T09:23:24.042Z,27.99
2022-09-27T09:24:24.042Z,27.85
2022-09-27T09:25:24.044Z,27.90
2022-09-27T09:26:24.070Z,27.94
2022-09-27T09:27:24.044Z,27.85
2022-09-27T09:28:24.044Z,27.92
2022-09-27T09:29:24.046Z,27.94
2022-09-27T09:30:24.046Z,27.78
2022-09-27T09:31:24.132Z,27.90
2022-09-27T09:32:24.049Z,27.85
2022-09-27T09:33:24.050Z,27.87
2022-09-27T09:34:24.051Z,27.85
2022-09-27T09:35:24.050Z,27.77
2022-09-27T09:36:24.051Z,27.92
2022-09-27T09:37:24.051Z,27.85
2022-09-27T09:38:24.059Z,27.88
2022-09-27T09:39:24.051Z,27.81
2022-09-27T09:40:24.118Z,27.85
2022-09-27T09:41:24.053Z,27.84
2022-09-27T09:42:24.078Z,27.87
2022-09-27T09:43:24.058Z,27.74
2022-09-27T09:44:24.054Z,27.94
2022-09-27T09:45:24.102Z,27.84
2022-09-27T09:46:24.054Z,27.92
2022-09-27T09:47:24.057Z,27.81
2022-09-27T09:48:24.057Z,27.78
2022-09-27T09:49:24.057Z,27.74
2022-09-27T09:50:24.065Z,27.84
2022-09-27T09:51:24.060Z,27.84
2022-09-27T09:52:24.059Z,27.88
2022-09-27T09:53:24.062Z,27.84
2022-09-27T09:54:24.060Z,27.87
2022-09-27T09:55:24.065Z,27.69
2022-09-27T09:56:24.062Z,27.99
2022-09-27T09:57:24.066Z,27.87
2022-09-27T09:58:24.087Z,27.81
2022-09-27T09:59:24.063Z,27.79
2022-09-27T10:00:24.066Z,27.78
2022-09-27T10:01:24.144Z,27.78
2022-09-27T10:02:24.097Z,27.85
2022-09-27T10:03:24.068Z,27.84
2022-09-27T10:04:24.066Z,27.90
2022-09-27T10:05:24.069Z,27.94
2022-09-27T10:06:24.066Z,27.94
2022-09-27T10:07:24.074Z,27.84
2022-09-27T10:08:24.071Z,27.78
2022-09-27T10:09:24.072Z,27.82
2022-09-27T10:10:24.069Z,27.79
2022-09-27T10:11:24.071Z,27.81
2022-09-27T10:12:24.072Z,27.81
2022-09-27T10:13:24.075Z,27.88
2022-09-27T10:14:24.097Z,27.96
2022-09-27T10:15:24.107Z,27.75
2022-09-27T10:16:24.193Z,27.77
2022-09-27T10:17:24.077Z,27.93
2022-09-27T10:18:24.076Z,27.85
2022-09-27T10:19:24.077Z,27.85
2022-09-27T10:20:24.076Z,27.88
2022-09-27T10:21:24.104Z,27.94
2022-09-27T10:22:24.077Z,27.79
2022-09-27T10:23:24.082Z,27.96
2022-09-27T10:24:24.608Z,27.85
2022-09-27T10:25:24.081Z,27.85
2022-09-27T10:26:24.081Z,27.79
2022-09-27T10:27:24.081Z,27.79
2022-09-27T10:28:24.082Z,27.75
2022-09-27T10:29:24.084Z,27.84
2022-09-27T10:30:24.109Z,27.78
2022-09-27T10:31:24.155Z,27.74
2022-09-27T10:32:24.084Z,27.79
2022-09-27T10:33:24.092Z,27.79
2022-09-27T10:34:24.084Z,27.72
2022-09-27T10:35:24.226Z,27.72
2022-09-27T10:36:24.086Z,27.70
2022-09-27T10:37:24.092Z,27.79
2022-09-27T10:38:24.087Z,27.84
2022-09-27T10:39:24.088Z,27.82
2022-09-27T10:40:24.129Z,27.79
2022-09-27T10:41:24.093Z,27.82
2022-09-27T10:42:24.089Z,27.78
2022-09-27T10:43:27.527Z,27.82
2022-09-27T10:44:24.090Z,27.81
2022-09-27T10:45:24.172Z,27.82
2022-09-27T10:46:24.115Z,27.69
2022-09-27T10:47:24.095Z,27.84
2022-09-27T10:48:24.093Z,27.75
2022-09-27T10:49:24.099Z,27.77
2022-09-27T10:50:46.140Z,27.77
2022-09-27T10:51:24.098Z,27.75
2022-09-27T10:52:24.119Z,27.82
2022-09-27T10:53:24.097Z,27.77
2022-09-27T10:54:24.096Z,27.85
2022-09-27T10:55:24.097Z,27.87
2022-09-27T10:56:24.101Z,27.78
2022-09-27T10:57:24.100Z,27.87
2022-09-27T10:58:24.099Z,27.90
2022-09-27T10:59:24.101Z,27.90
2022-09-27T11:00:24.099Z,27.88
2022-09-27T11:01:24.125Z,27.92
2022-09-27T11:02:24.131Z,27.92
2022-09-27T11:03:24.103Z,27.97
2022-09-27T11:04:24.138Z,27.93
2022-09-27T11:05:24.106Z,27.88
2022-09-27T11:06:24.103Z,27.94
2022-09-27T11:07:24.105Z,27.94
2022-09-27T11:08:24.115Z,27.79
2022-09-27T11:09:24.109Z,27.93
2022-09-27T11:10:24.190Z,27.87
2022-09-27T11:11:24.108Z,27.84
2022-09-27T11:12:24.107Z,27.94
2022-09-27T11:13:24.117Z,27.97
2022-09-27T11:14:24.108Z,27.92
2022-09-27T11:15:24.123Z,27.94
2022-09-27T11:16:24.160Z,28.00
2022-09-27T11:17:24.116Z,28.03
2022-09-27T11:18:24.142Z,28.09
2022-09-27T11:19:24.114Z,28.11
2022-09-27T11:20:24.114Z,28.06
2022-09-27T11:21:24.115Z,28.09
2022-09-27T11:22:24.114Z,28.04
2022-09-27T11:23:24.117Z,28.06
2022-09-27T11:24:24.116Z,28.02
2022-09-27T11:25:27.263Z,28.00
2022-09-27T11:26:24.117Z,28.04
2022-09-27T11:27:24.121Z,28.03
2022-09-27T11:28:24.119Z,28.11
2022-09-27T11:29:24.120Z,28.12
2022-09-27T11:30:24.120Z,28.12
2022-09-27T11:31:24.143Z,28.18
2022-09-27T11:32:24.124Z,28.17
2022-09-27T11:33:24.131Z,28.21
2022-09-27T11:34:24.219Z,28.09
2022-09-27T11:35:24.127Z,28.14
2022-09-27T11:36:24.126Z,28.07
2022-09-27T11:37:24.137Z,28.15
2022-09-27T11:38:48.094Z,28.17
2022-09-27T11:39:24.127Z,28.15
2022-09-27T11:40:24.229Z,28.17
2022-09-27T11:41:24.130Z,28.12
2022-09-27T11:42:24.136Z,28.19
2022-09-27T11:43:24.131Z,28.14
2022-09-27T11:44:24.132Z,28.06
2022-09-27T11:45:41.046Z,28.09
2022-09-27T11:46:29.203Z,28.07
2022-09-27T11:47:24.281Z,28.07
2022-09-27T11:48:24.136Z,28.11
2022-09-27T11:49:24.136Z,28.03
2022-09-27T11:50:24.161Z,28.02
2022-09-27T11:51:24.137Z,28.07
2022-09-27T11:52:24.139Z,27.97
2022-09-27T11:53:24.140Z,28.06
2022-09-27T11:54:24.141Z,28.09
2022-09-27T11:55:24.144Z,27.93
2022-09-27T11:56:24.143Z,27.99
2022-09-27T11:57:24.142Z,27.92
2022-09-27T11:58:24.144Z,27.93
2022-09-27T11:59:25.042Z,27.94
2022-09-27T12:00:24.145Z,27.93
2022-09-27T12:01:24.158Z,27.93
2022-09-27T12:02:24.300Z,27.87
2022-09-27T12:03:24.148Z,27.92
2022-09-27T12:04:24.148Z,27.96
2022-09-27T12:05:24.148Z,27.96
2022-09-27T12:06:24.172Z,27.85
2022-09-27T12:07:24.150Z,27.92
2022-09-27T12:08:24.153Z,27.90
2022-09-27T12:09:24.151Z,27.87
2022-09-27T12:10:24.151Z,27.79
2022-09-27T12:11:24.152Z,27.82
2022-09-27T12:12:24.157Z,27.82
2022-09-27T12:13:24.154Z,27.82
2022-09-27T12:14:26.939Z,27.87
2022-09-27T12:15:24.155Z,27.99
2022-09-27T12:16:24.156Z,27.90
2022-09-27T12:17:24.158Z,27.92
2022-09-27T12:18:24.159Z,27.77
2022-09-27T12:19:24.157Z,27.72
2022-09-27T12:20:24.160Z,27.72
2022-09-27T12:21:24.160Z,27.81
2022-09-27T12:22:46.811Z,27.81
2022-09-27T12:23:24.160Z,27.81
2022-09-27T12:24:24.162Z,27.78
2022-09-27T12:25:24.161Z,27.75
2022-09-27T12:26:24.162Z,27.74
2022-09-27T12:27:24.163Z,27.70
2022-09-27T12:28:28.170Z,27.74
2022-09-27T12:29:24.164Z,27.84
2022-09-27T12:30:24.167Z,27.70
2022-09-27T12:31:31.329Z,27.75
2022-09-27T12:32:24.231Z,27.63
2022-09-27T12:33:24.166Z,27.65
2022-09-27T12:34:24.168Z,27.66
2022-09-27T12:35:24.167Z,27.63
2022-09-27T12:36:24.318Z,27.63
2022-09-27T12:37:24.169Z,27.62
2022-09-27T12:38:24.202Z,27.62
2022-09-27T12:39:24.170Z,27.57
2022-09-27T12:40:24.211Z,27.67
2022-09-27T12:41:24.170Z,27.65
2022-09-27T12:42:24.172Z,27.54
2022-09-27T12:43:24.171Z,27.55
2022-09-27T12:44:24.172Z,27.57
2022-09-27T12:45:24.172Z,27.69
2022-09-27T12:46:24.235Z,27.57
2022-09-27T12:47:24.173Z,27.57
2022-09-27T12:48:24.178Z,27.67
2022-09-27T12:49:24.175Z,27.67
2022-09-27T12:50:24.175Z,27.65
2022-09-27T12:51:24.179Z,27.60
2022-09-27T12:52:24.176Z,27.62